Zenith Spirit — C6WZ7 — position and weather

sailwx.info

Track history (hours):
 
Tides and Currents Weather Stations Pressure Air Temp Water Temp Dewpoint Dewpoint Depression Visibility Wind Speed Wind Dir Waves Ship Positions

Zenith Spirit

Last reported at 2018-Jul-17 18:16 UTC. Time now 2018-Jul-21 19:30 UTC.
Position N 55°00' W 000°51'.

Length 274 m; draft 8.9 m.

Type: Ship. MMSI: 308329000.

Date/timePositionNaut miles runAvg speedWind from/ knotsBaromVisibWave heightAir tempDewpointWater temp
2018-Jul-17 18:16N 55°00' W 000°51'310.0
2018-Jul-17 17:56N 55°04' W 000°52'4 9.9
2018-Jul-17 17:31N 55°07' W 000°55'5 9.6
2018-Jul-17 16:58N 55°12' W 000°58'4 8.9
2018-Jul-17 16:30N 55°17' W 000°57'5 9.0
2018-Jul-17 15:55N 55°22' W 000°56'20 8.5
2018-Jul-17 13:36N 55°41' W 000°58'1 8.2
2018-Jul-17 13:30N 55°42' W 000°58'8 7.7
2018-Jul-17 12:29N 55°50' W 000°59'  
2018-Jul-15 03:29N 55°43' W 006°59'715.0
2018-Jul-15 03:00N 55°39' W 006°49'714.9
2018-Jul-15 02:30N 55°34' W 006°39'714.6
2018-Jul-15 02:00N 55°30' W 006°28'714.0
2018-Jul-15 01:31N 55°27' W 006°18'713.1
2018-Jul-15 01:01N 55°25' W 006°06'611.5
2018-Jul-15 00:30N 55°22' W 005°59'611.7
2018-Jul-15 00:00N 55°17' W 005°53'510.1
2018-Jul-14 23:30N 55°13' W 005°47'510.3
2018-Jul-14 22:59N 55°12' W 005°38'8 9.8
2018-Jul-14 22:11N 55°14' W 005°25'210.7
2018-Jul-14 22:00N 55°15' W 005°22'510.7
2018-Jul-14 21:30N 55°17' W 005°14'  
2018-Jul-11 19:27N 55°39' W 004°59'612.4
2018-Jul-11 19:01N 55°45' W 004°59'611.6
2018-Jul-11 18:30N 55°51' W 004°57'611.7
2018-Jul-11 18:01N 55°56' W 004°54'6 0.2
2018-Jul-10 06:47N 56°02' W 004°53'311.2
2018-Jul-10 06:30N 55°59' W 004°53'611.4
2018-Jul-10 06:00N 55°54' W 004°56'611.8
2018-Jul-10 05:30N 55°48' W 004°58'5 9.5
2018-Jul-10 05:00N 55°43' W 004°59'2 4.8
2018-Jul-10 04:30N 55°41' W 004°60'31 8.7
2018-Jul-10 00:58N 55°11' W 005°16'610.4
2018-Jul-10 00:24N 55°06' W 005°21'710.6
2018-Jul-09 23:47N 55°01' W 005°27'310.3
2018-Jul-09 23:30N 54°58' W 005°27'612.2
2018-Jul-09 23:00N 54°52' W 005°22'612.3
2018-Jul-09 22:30N 54°47' W 005°16'713.4
2018-Jul-09 22:00N 54°41' W 005°10'713.2
2018-Jul-09 21:29N 54°35' W 005°06'612.5
2018-Jul-09 21:00N 54°29' W 005°06'612.4
2018-Jul-09 20:30N 54°23' W 005°06'612.2
2018-Jul-09 20:00N 54°17' W 005°07'612.2
2018-Jul-09 19:30N 54°11' W 005°07'712.5
2018-Jul-09 18:56N 54°03' W 005°08'512.6
2018-Jul-09 18:30N 53°58' W 005°09'7313.0
2018-Jul-09 12:54N 52°46' W 005°17'612.5
2018-Jul-09 12:24N 52°39' W 005°18'1812.1
2018-Jul-09 10:53N 52°21' W 005°22'511.8
2018-Jul-09 10:29N 52°17' W 005°26'612.0
2018-Jul-09 10:00N 52°12' W 005°30'712.0
2018-Jul-09 09:27N 52°06' W 005°35'511.8
2018-Jul-09 09:00N 52°01' W 005°38'611.7
2018-Jul-09 08:30N 51°56' W 005°43'912.0
2018-Jul-09 07:46N 51°47' W 005°47'312.4
2018-Jul-09 07:30N 51°44' W 005°49'713.2
2018-Jul-09 06:59N 51°38' W 005°52'613.8
2018-Jul-09 06:30N 51°31' W 005°55'713.8
2018-Jul-09 06:00N 51°25' W 005°58'713.8
2018-Jul-09 05:30N 51°18' W 006°01'713.7
2018-Jul-09 05:00N 51°12' W 006°04'713.9
2018-Jul-09 04:30N 51°05' W 006°08'714.0
2018-Jul-09 04:01N 50°58' W 006°11'713.8
2018-Jul-09 03:30N 50°52' W 006°14'713.8
2018-Jul-09 03:00N 50°45' W 006°17'714.1
2018-Jul-09 02:29N 50°38' W 006°20'714.3
2018-Jul-09 01:59N 50°31' W 006°23'714.2
2018-Jul-09 01:30N 50°24' W 006°26'1814.2
2018-Jul-09 00:13N 50°07' W 006°35'313.9
2018-Jul-09 00:01N 50°04' W 006°36'914.4
2018-Jul-08 23:24N 49°56' W 006°40'1314.3
2018-Jul-08 22:28N 49°44' W 006°50'714.0
2018-Jul-08 22:00N 49°38' W 006°55'714.3
2018-Jul-08 21:30N 49°32' W 007°01'  
Track history (hours):
 
Tides and Currents Weather Stations Pressure Air Temp Water Temp Dewpoint Dewpoint Depression Visibility Wind Speed Wind Dir Waves Ship Positions

Zenith Spirit

Last reported at 2018-Jul-17 18:16 UTC. Time now 2018-Jul-21 19:30 UTC.
Position N 55°00' W 000°51'.

Length 274 m; draft 8.9 m.

Type: Ship. MMSI: 308329000.

Date/timePositionNaut miles runAvg speedWind from/ knotsBaromVisibWave heightAir tempDewpointWater temp
2018-Jul-17 18:16N 55°00' W 000°51'310.0
2018-Jul-17 17:56N 55°04' W 000°52'4 9.9
2018-Jul-17 17:31N 55°07' W 000°55'5 9.6
2018-Jul-17 16:58N 55°12' W 000°58'4 8.9
2018-Jul-17 16:30N 55°17' W 000°57'5 9.0
2018-Jul-17 15:55N 55°22' W 000°56'20 8.5
2018-Jul-17 13:36N 55°41' W 000°58'1 8.2
2018-Jul-17 13:30N 55°42' W 000°58'8 7.7
2018-Jul-17 12:29N 55°50' W 000°59'  
2018-Jul-15 03:29N 55°43' W 006°59'715.0
2018-Jul-15 03:00N 55°39' W 006°49'714.9
2018-Jul-15 02:30N 55°34' W 006°39'714.6
2018-Jul-15 02:00N 55°30' W 006°28'714.0
2018-Jul-15 01:31N 55°27' W 006°18'713.1
2018-Jul-15 01:01N 55°25' W 006°06'611.5
2018-Jul-15 00:30N 55°22' W 005°59'611.7
2018-Jul-15 00:00N 55°17' W 005°53'510.1
2018-Jul-14 23:30N 55°13' W 005°47'510.3
2018-Jul-14 22:59N 55°12' W 005°38'8 9.8
2018-Jul-14 22:11N 55°14' W 005°25'210.7
2018-Jul-14 22:00N 55°15' W 005°22'510.7
2018-Jul-14 21:30N 55°17' W 005°14'  
2018-Jul-11 19:27N 55°39' W 004°59'612.4
2018-Jul-11 19:01N 55°45' W 004°59'611.6
2018-Jul-11 18:30N 55°51' W 004°57'611.7
2018-Jul-11 18:01N 55°56' W 004°54'6 0.2
2018-Jul-10 06:47N 56°02' W 004°53'311.2
2018-Jul-10 06:30N 55°59' W 004°53'611.4
2018-Jul-10 06:00N 55°54' W 004°56'611.8
2018-Jul-10 05:30N 55°48' W 004°58'5 9.5
2018-Jul-10 05:00N 55°43' W 004°59'2 4.8
2018-Jul-10 04:30N 55°41' W 004°60'31 8.7
2018-Jul-10 00:58N 55°11' W 005°16'610.4
2018-Jul-10 00:24N 55°06' W 005°21'710.6
2018-Jul-09 23:47N 55°01' W 005°27'310.3
2018-Jul-09 23:30N 54°58' W 005°27'612.2
2018-Jul-09 23:00N 54°52' W 005°22'612.3
2018-Jul-09 22:30N 54°47' W 005°16'713.4
2018-Jul-09 22:00N 54°41' W 005°10'713.2
2018-Jul-09 21:29N 54°35' W 005°06'612.5
2018-Jul-09 21:00N 54°29' W 005°06'612.4
2018-Jul-09 20:30N 54°23' W 005°06'612.2
2018-Jul-09 20:00N 54°17' W 005°07'612.2
2018-Jul-09 19:30N 54°11' W 005°07'712.5
2018-Jul-09 18:56N 54°03' W 005°08'512.6
2018-Jul-09 18:30N 53°58' W 005°09'7313.0
2018-Jul-09 12:54N 52°46' W 005°17'612.5
2018-Jul-09 12:24N 52°39' W 005°18'1812.1
2018-Jul-09 10:53N 52°21' W 005°22'511.8
2018-Jul-09 10:29N 52°17' W 005°26'612.0
2018-Jul-09 10:00N 52°12' W 005°30'712.0
2018-Jul-09 09:27N 52°06' W 005°35'511.8
2018-Jul-09 09:00N 52°01' W 005°38'611.7
2018-Jul-09 08:30N 51°56' W 005°43'912.0
2018-Jul-09 07:46N 51°47' W 005°47'312.4
2018-Jul-09 07:30N 51°44' W 005°49'713.2
2018-Jul-09 06:59N 51°38' W 005°52'613.8
2018-Jul-09 06:30N 51°31' W 005°55'713.8
2018-Jul-09 06:00N 51°25' W 005°58'713.8
2018-Jul-09 05:30N 51°18' W 006°01'713.7
2018-Jul-09 05:00N 51°12' W 006°04'713.9
2018-Jul-09 04:30N 51°05' W 006°08'714.0
2018-Jul-09 04:01N 50°58' W 006°11'713.8
2018-Jul-09 03:30N 50°52' W 006°14'713.8
2018-Jul-09 03:00N 50°45' W 006°17'714.1
2018-Jul-09 02:29N 50°38' W 006°20'714.3
2018-Jul-09 01:59N 50°31' W 006°23'714.2
2018-Jul-09 01:30N 50°24' W 006°26'1814.2
2018-Jul-09 00:13N 50°07' W 006°35'313.9
2018-Jul-09 00:01N 50°04' W 006°36'914.4
2018-Jul-08 23:24N 49°56' W 006°40'1314.3
2018-Jul-08 22:28N 49°44' W 006°50'714.0
2018-Jul-08 22:00N 49°38' W 006°55'714.3
2018-Jul-08 21:30N 49°32' W 007°01'  

Dump ship's entire track history